sensor_id;sensor_type;location;lat;lon;timestamp;pressure;altitude;pressure_sealevel;temperature
71807;BMP280;59655;42.590;23.364;2024-02-04T00:00:14;91744.19;;;6.29
71807;BMP280;59655;42.590;23.364;2024-02-04T00:02:40;91735.84;;;6.25
71807;BMP280;59655;42.590;23.364;2024-02-04T00:05:05;91735.09;;;6.30
71807;BMP280;59655;42.590;23.364;2024-02-04T00:07:30;91769.72;;;6.15
71807;BMP280;59655;42.590;23.364;2024-02-04T00:09:56;91722.91;;;6.08
71807;BMP280;59655;42.590;23.364;2024-02-04T00:12:21;91748.50;;;6.07
71807;BMP280;59655;42.590;23.364;2024-02-04T00:14:47;91744.88;;;6.11
71807;BMP280;59655;42.590;23.364;2024-02-04T00:17:15;91742.47;;;6.13
71807;BMP280;59655;42.590;23.364;2024-02-04T00:19:40;91728.44;;;6.23
71807;BMP280;59655;42.590;23.364;2024-02-04T00:22:06;91732.09;;;6.20
71807;BMP280;59655;42.590;23.364;2024-02-04T00:24:32;91727.31;;;6.19
71807;BMP280;59655;42.590;23.364;2024-02-04T00:26:57;91734.44;;;6.24
71807;BMP280;59655;42.590;23.364;2024-02-04T00:29:22;91724.50;;;6.11
71807;BMP280;59655;42.590;23.364;2024-02-04T00:31:48;91716.41;;;6.09
71807;BMP280;59655;42.590;23.364;2024-02-04T00:34:13;91729.84;;;6.05
71807;BMP280;59655;42.590;23.364;2024-02-04T00:36:38;91721.38;;;6.13
71807;BMP280;59655;42.590;23.364;2024-02-04T00:39:04;91726.34;;;6.22
71807;BMP280;59655;42.590;23.364;2024-02-04T00:41:30;91729.53;;;6.34
71807;BMP280;59655;42.590;23.364;2024-02-04T00:43:55;91730.47;;;6.36
71807;BMP280;59655;42.590;23.364;2024-02-04T00:46:21;91732.88;;;6.34
71807;BMP280;59655;42.590;23.364;2024-02-04T00:48:46;91745.03;;;6.18
71807;BMP280;59655;42.590;23.364;2024-02-04T00:51:11;91733.81;;;6.18
71807;BMP280;59655;42.590;23.364;2024-02-04T00:53:38;91725.69;;;6.16
71807;BMP280;59655;42.590;23.364;2024-02-04T00:56:04;91723.88;;;6.24
71807;BMP280;59655;42.590;23.364;2024-02-04T00:58:29;91729.03;;;6.16
71807;BMP280;59655;42.590;23.364;2024-02-04T01:00:55;91740.78;;;6.10
71807;BMP280;59655;42.590;23.364;2024-02-04T01:03:20;91731.78;;;6.05
71807;BMP280;59655;42.590;23.364;2024-02-04T01:05:45;91748.03;;;6.09
71807;BMP280;59655;42.590;23.364;2024-02-04T01:08:11;91738.75;;;6.02
71807;BMP280;59655;42.590;23.364;2024-02-04T01:10:36;91743.53;;;5.98
71807;BMP280;59655;42.590;23.364;2024-02-04T01:13:03;91745.69;;;6.00
71807;BMP280;59655;42.590;23.364;2024-02-04T01:15:28;91716.47;;;6.03
71807;BMP280;59655;42.590;23.364;2024-02-04T01:17:54;91728.38;;;5.85
71807;BMP280;59655;42.590;23.364;2024-02-04T01:20:19;91732.09;;;5.96
71807;BMP280;59655;42.590;23.364;2024-02-04T01:22:44;91729.41;;;6.01
71807;BMP280;59655;42.590;23.364;2024-02-04T01:25:10;91743.25;;;6.07
71807;BMP280;59655;42.590;23.364;2024-02-04T01:27:35;91726.56;;;5.99
71807;BMP280;59655;42.590;23.364;2024-02-04T01:30:00;91744.78;;;5.97
71807;BMP280;59655;42.590;23.364;2024-02-04T01:32:26;91729.41;;;6.01
71807;BMP280;59655;42.590;23.364;2024-02-04T01:34:51;91732.69;;;6.07
71807;BMP280;59655;42.590;23.364;2024-02-04T01:37:17;91729.19;;;5.99
71807;BMP280;59655;42.590;23.364;2024-02-04T01:39:42;91730.84;;;6.02
71807;BMP280;59655;42.590;23.364;2024-02-04T01:42:07;91729.34;;;6.07
71807;BMP280;59655;42.590;23.364;2024-02-04T01:44:33;91728.22;;;6.02
71807;BMP280;59655;42.590;23.364;2024-02-04T01:46:58;91731.88;;;6.18
71807;BMP280;59655;42.590;23.364;2024-02-04T01:49:24;91708.47;;;6.34
71807;BMP280;59655;42.590;23.364;2024-02-04T01:51:51;91717.28;;;6.36
71807;BMP280;59655;42.590;23.364;2024-02-04T01:54:16;91713.66;;;6.39
71807;BMP280;59655;42.590;23.364;2024-02-04T01:56:43;91715.50;;;6.44
71807;BMP280;59655;42.590;23.364;2024-02-04T01:59:12;91715.50;;;6.44
71807;BMP280;59655;42.590;23.364;2024-02-04T02:01:38;91712.66;;;6.42
71807;BMP280;59655;42.590;23.364;2024-02-04T02:04:04;91719.13;;;6.41
71807;BMP280;59655;42.590;23.364;2024-02-04T02:06:30;91712.91;;;6.39
71807;BMP280;59655;42.590;23.364;2024-02-04T02:08:58;91704.13;;;6.36
71807;BMP280;59655;42.590;23.364;2024-02-04T02:11:40;91698.63;;;6.34
71807;BMP280;59655;42.590;23.364;2024-02-04T02:14:12;91703.53;;;6.24
71807;BMP280;59655;42.590;23.364;2024-02-04T02:16:38;91699.34;;;6.16
71807;BMP280;59655;42.590;23.364;2024-02-04T02:19:14;91708.38;;;6.20
71807;BMP280;59655;42.590;23.364;2024-02-04T02:21:57;91703.13;;;6.20
71807;BMP280;59655;42.590;23.364;2024-02-04T02:26:50;91697.84;;;6.20
71807;BMP280;59655;42.590;23.364;2024-02-04T02:29:15;91695.97;;;6.15
71807;BMP280;59655;42.590;23.364;2024-02-04T02:31:41;91702.69;;;6.16
71807;BMP280;59655;42.590;23.364;2024-02-04T02:34:07;91691.34;;;6.02
71807;BMP280;59655;42.590;23.364;2024-02-04T02:36:47;91702.09;;;6.04
71807;BMP280;59655;42.590;23.364;2024-02-04T02:39:18;91687.56;;;6.17
71807;BMP280;59655;42.590;23.364;2024-02-04T02:41:49;91700.97;;;6.19
71807;BMP280;59655;42.590;23.364;2024-02-04T02:44:16;91698.16;;;6.11
71807;BMP280;59655;42.590;23.364;2024-02-04T02:46:42;91697.41;;;6.16
71807;BMP280;59655;42.590;23.364;2024-02-04T02:49:08;91693.34;;;6.15
71807;BMP280;59655;42.590;23.364;2024-02-04T02:51:33;91695.75;;;6.13
71807;BMP280;59655;42.590;23.364;2024-02-04T02:53:59;91702.41;;;6.20
71807;BMP280;59655;42.590;23.364;2024-02-04T02:56:24;91695.22;;;6.20
71807;BMP280;59655;42.590;23.364;2024-02-04T02:58:49;91689.56;;;6.11
71807;BMP280;59655;42.590;23.364;2024-02-04T03:01:15;91699.38;;;6.10
71807;BMP280;59655;42.590;23.364;2024-02-04T03:03:40;91683.06;;;6.12
71807;BMP280;59655;42.590;23.364;2024-02-04T03:06:05;91686.59;;;6.20
71807;BMP280;59655;42.590;23.364;2024-02-04T03:08:31;91680.44;;;6.12
71807;BMP280;59655;42.590;23.364;2024-02-04T03:10:56;91688.00;;;6.21
71807;BMP280;59655;42.590;23.364;2024-02-04T03:13:22;91686.88;;;6.16
71807;BMP280;59655;42.590;23.364;2024-02-04T03:15:47;91678.19;;;6.21
71807;BMP280;59655;42.590;23.364;2024-02-04T03:18:13;91671.50;;;6.20
71807;BMP280;59655;42.590;23.364;2024-02-04T03:20:38;91682.03;;;6.20
71807;BMP280;59655;42.590;23.364;2024-02-04T03:23:03;91683.66;;;6.23
71807;BMP280;59655;42.590;23.364;2024-02-04T03:25:29;91680.31;;;6.23
71807;BMP280;59655;42.590;23.364;2024-02-04T03:27:55;91679.91;;;6.19
71807;BMP280;59655;42.590;23.364;2024-02-04T03:30:20;91678.91;;;6.22
71807;BMP280;59655;42.590;23.364;2024-02-04T03:32:45;91676.56;;;6.18
71807;BMP280;59655;42.590;23.364;2024-02-04T03:35:11;91680.09;;;6.21
71807;BMP280;59655;42.590;23.364;2024-02-04T03:37:36;91665.22;;;6.23
71807;BMP280;59655;42.590;23.364;2024-02-04T03:40:02;91673.13;;;6.23
71807;BMP280;59655;42.590;23.364;2024-02-04T03:42:27;91671.41;;;6.26
71807;BMP280;59655;42.590;23.364;2024-02-04T03:44:53;91672.63;;;6.25
71807;BMP280;59655;42.590;23.364;2024-02-04T03:47:19;91661.09;;;6.28
71807;BMP280;59655;42.590;23.364;2024-02-04T03:49:44;91656.19;;;6.19
71807;BMP280;59655;42.590;23.364;2024-02-04T03:52:09;91642.31;;;6.18
71807;BMP280;59655;42.590;23.364;2024-02-04T03:54:35;91629.78;;;6.05
71807;BMP280;59655;42.590;23.364;2024-02-04T03:57:00;91631.22;;;6.58
71807;BMP280;59655;42.590;23.364;2024-02-04T03:59:25;91642.19;;;6.62
71807;BMP280;59655;42.590;23.364;2024-02-04T04:01:51;91651.00;;;6.97
71807;BMP280;59655;42.590;23.364;2024-02-04T04:04:18;91636.09;;;6.86
71807;BMP280;59655;42.590;23.364;2024-02-04T04:06:44;91646.47;;;6.97
71807;BMP280;59655;42.590;23.364;2024-02-04T04:09:10;91644.84;;;7.07
71807;BMP280;59655;42.590;23.364;2024-02-04T04:11:35;91640.16;;;7.00
71807;BMP280;59655;42.590;23.364;2024-02-04T04:14:01;91653.22;;;6.93
71807;BMP280;59655;42.590;23.364;2024-02-04T04:16:26;91653.25;;;7.06
71807;BMP280;59655;42.590;23.364;2024-02-04T04:18:52;91662.41;;;7.05
71807;BMP280;59655;42.590;23.364;2024-02-04T04:21:17;91661.16;;;7.06
71807;BMP280;59655;42.590;23.364;2024-02-04T04:23:42;91643.94;;;7.05
71807;BMP280;59655;42.590;23.364;2024-02-04T04:26:08;91639.28;;;7.11
71807;BMP280;59655;42.590;23.364;2024-02-04T04:28:34;91641.50;;;7.07
71807;BMP280;59655;42.590;23.364;2024-02-04T04:30:59;91636.03;;;7.05
71807;BMP280;59655;42.590;23.364;2024-02-04T04:33:24;91634.59;;;7.04
71807;BMP280;59655;42.590;23.364;2024-02-04T04:35:50;91680.16;;;7.18
71807;BMP280;59655;42.590;23.364;2024-02-04T04:38:15;91693.91;;;7.43
71807;BMP280;59655;42.590;23.364;2024-02-04T04:40:41;91684.59;;;7.42
71807;BMP280;59655;42.590;23.364;2024-02-04T04:43:06;91682.84;;;7.31
71807;BMP280;59655;42.590;23.364;2024-02-04T04:45:32;91687.09;;;7.21
71807;BMP280;59655;42.590;23.364;2024-02-04T04:47:57;91685.44;;;7.18
71807;BMP280;59655;42.590;23.364;2024-02-04T04:50:22;91678.16;;;7.10
71807;BMP280;59655;42.590;23.364;2024-02-04T04:52:48;91662.81;;;7.09
71807;BMP280;59655;42.590;23.364;2024-02-04T04:55:13;91682.69;;;7.10
71807;BMP280;59655;42.590;23.364;2024-02-04T04:57:39;91730.69;;;7.08
71807;BMP280;59655;42.590;23.364;2024-02-04T05:00:05;91698.72;;;7.12
71807;BMP280;59655;42.590;23.364;2024-02-04T05:02:32;91678.34;;;7.13
71807;BMP280;59655;42.590;23.364;2024-02-04T05:04:58;91671.34;;;7.15
71807;BMP280;59655;42.590;23.364;2024-02-04T05:07:23;91689.41;;;7.11
71807;BMP280;59655;42.590;23.364;2024-02-04T05:09:48;91656.53;;;7.12
71807;BMP280;59655;42.590;23.364;2024-02-04T05:12:14;91663.03;;;7.11
71807;BMP280;59655;42.590;23.364;2024-02-04T05:14:39;91652.97;;;7.09
71807;BMP280;59655;42.590;23.364;2024-02-04T05:17:04;91653.38;;;7.14
71807;BMP280;59655;42.590;23.364;2024-02-04T05:19:31;91638.56;;;7.10
71807;BMP280;59655;42.590;23.364;2024-02-04T05:21:56;91638.38;;;7.08
71807;BMP280;59655;42.590;23.364;2024-02-04T05:24:21;91636.94;;;7.07
71807;BMP280;59655;42.590;23.364;2024-02-04T05:26:46;91655.84;;;7.25
71807;BMP280;59655;42.590;23.364;2024-02-04T05:29:12;91665.06;;;7.18
71807;BMP280;59655;42.590;23.364;2024-02-04T05:31:41;91675.34;;;7.22
71807;BMP280;59655;42.590;23.364;2024-02-04T05:34:07;91668.13;;;7.22
71807;BMP280;59655;42.590;23.364;2024-02-04T05:36:33;91677.88;;;7.27
71807;BMP280;59655;42.590;23.364;2024-02-04T05:39:11;91656.94;;;7.29
71807;BMP280;59655;42.590;23.364;2024-02-04T05:41:37;91685.78;;;7.27
71807;BMP280;59655;42.590;23.364;2024-02-04T05:44:03;91676.84;;;7.30
71807;BMP280;59655;42.590;23.364;2024-02-04T05:46:28;91642.75;;;7.32
71807;BMP280;59655;42.590;23.364;2024-02-04T05:48:53;91674.41;;;7.32
71807;BMP280;59655;42.590;23.364;2024-02-04T05:51:19;91690.53;;;7.29
71807;BMP280;59655;42.590;23.364;2024-02-04T05:53:44;91682.44;;;7.27
71807;BMP280;59655;42.590;23.364;2024-02-04T05:56:09;91687.91;;;7.29
71807;BMP280;59655;42.590;23.364;2024-02-04T05:58:35;91684.06;;;7.30
71807;BMP280;59655;42.590;23.364;2024-02-04T06:01:00;91658.88;;;7.29
71807;BMP280;59655;42.590;23.364;2024-02-04T06:03:25;91667.09;;;7.25
71807;BMP280;59655;42.590;23.364;2024-02-04T06:05:51;91700.50;;;7.23
71807;BMP280;59655;42.590;23.364;2024-02-04T06:08:16;91701.63;;;7.27
71807;BMP280;59655;42.590;23.364;2024-02-04T06:10:41;91680.81;;;7.24
71807;BMP280;59655;42.590;23.364;2024-02-04T06:13:07;91782.72;;;7.27
71807;BMP280;59655;42.590;23.364;2024-02-04T06:15:33;91683.16;;;7.27
71807;BMP280;59655;42.590;23.364;2024-02-04T06:18:00;91713.41;;;7.26
71807;BMP280;59655;42.590;23.364;2024-02-04T06:20:26;91734.31;;;7.24
71807;BMP280;59655;42.590;23.364;2024-02-04T06:22:51;91685.66;;;7.20
71807;BMP280;59655;42.590;23.364;2024-02-04T06:25:16;91695.00;;;7.21
71807;BMP280;59655;42.590;23.364;2024-02-04T06:27:42;91680.28;;;7.25
71807;BMP280;59655;42.590;23.364;2024-02-04T06:30:08;91696.53;;;7.29
71807;BMP280;59655;42.590;23.364;2024-02-04T06:32:33;91714.28;;;7.29
71807;BMP280;59655;42.590;23.364;2024-02-04T06:34:58;91682.97;;;7.39
71807;BMP280;59655;42.590;23.364;2024-02-04T06:37:24;91702.84;;;7.40
71807;BMP280;59655;42.590;23.364;2024-02-04T06:39:50;91721.97;;;7.59
71807;BMP280;59655;42.590;23.364;2024-02-04T06:42:15;91698.41;;;7.61
71807;BMP280;59655;42.590;23.364;2024-02-04T06:44:44;91721.97;;;7.59
71807;BMP280;59655;42.590;23.364;2024-02-04T06:47:10;91721.56;;;7.55
71807;BMP280;59655;42.590;23.364;2024-02-04T06:49:37;91714.63;;;7.52
71807;BMP280;59655;42.590;23.364;2024-02-04T06:52:03;91699.00;;;7.54
71807;BMP280;59655;42.590;23.364;2024-02-04T06:54:29;91716.00;;;7.59
71807;BMP280;59655;42.590;23.364;2024-02-04T06:56:54;91679.63;;;7.65
71807;BMP280;59655;42.590;23.364;2024-02-04T06:59:19;91717.59;;;7.75
71807;BMP280;59655;42.590;23.364;2024-02-04T07:01:45;91687.34;;;7.76
71807;BMP280;59655;42.590;23.364;2024-02-04T07:04:10;91704.81;;;7.79
71807;BMP280;59655;42.590;23.364;2024-02-04T07:06:36;91705.53;;;7.80
71807;BMP280;59655;42.590;23.364;2024-02-04T07:09:01;91716.22;;;7.74
71807;BMP280;59655;42.590;23.364;2024-02-04T07:11:26;91737.13;;;7.85
71807;BMP280;59655;42.590;23.364;2024-02-04T07:13:52;91706.44;;;7.82
71807;BMP280;59655;42.590;23.364;2024-02-04T07:16:24;91732.16;;;7.82
71807;BMP280;59655;42.590;23.364;2024-02-04T07:18:49;91707.34;;;7.85
71807;BMP280;59655;42.590;23.364;2024-02-04T07:21:15;91713.13;;;7.83
71807;BMP280;59655;42.590;23.364;2024-02-04T07:23:40;91724.13;;;7.87
71807;BMP280;59655;42.590;23.364;2024-02-04T07:26:05;91716.09;;;7.93
71807;BMP280;59655;42.590;23.364;2024-02-04T07:28:31;91771.34;;;7.91
71807;BMP280;59655;42.590;23.364;2024-02-04T07:30:56;91751.94;;;7.88
71807;BMP280;59655;42.590;23.364;2024-02-04T07:33:21;91737.53;;;7.89
71807;BMP280;59655;42.590;23.364;2024-02-04T07:35:47;91696.78;;;7.98
71807;BMP280;59655;42.590;23.364;2024-02-04T07:38:12;91736.91;;;8.10
71807;BMP280;59655;42.590;23.364;2024-02-04T07:40:38;91715.66;;;8.15
71807;BMP280;59655;42.590;23.364;2024-02-04T07:43:03;91697.94;;;8.24
71807;BMP280;59655;42.590;23.364;2024-02-04T07:45:29;91709.25;;;8.24
71807;BMP280;59655;42.590;23.364;2024-02-04T07:47:54;91701.63;;;8.21
71807;BMP280;59655;42.590;23.364;2024-02-04T07:50:19;91713.53;;;8.14
71807;BMP280;59655;42.590;23.364;2024-02-04T07:52:45;91731.72;;;8.17
71807;BMP280;59655;42.590;23.364;2024-02-04T07:55:10;91722.38;;;8.16
71807;BMP280;59655;42.590;23.364;2024-02-04T07:57:36;91733.25;;;8.26
71807;BMP280;59655;42.590;23.364;2024-02-04T08:00:01;91707.03;;;8.28
71807;BMP280;59655;42.590;23.364;2024-02-04T08:02:30;91705.25;;;8.31
71807;BMP280;59655;42.590;23.364;2024-02-04T08:04:55;91714.34;;;8.56
71807;BMP280;59655;42.590;23.364;2024-02-04T08:07:21;91700.94;;;8.54
71807;BMP280;59655;42.590;23.364;2024-02-04T08:09:46;91699.91;;;8.57
71807;BMP280;59655;42.590;23.364;2024-02-04T08:12:11;91716.75;;;8.68
71807;BMP280;59655;42.590;23.364;2024-02-04T08:14:37;91713.19;;;8.78
71807;BMP280;59655;42.590;23.364;2024-02-04T08:17:02;91733.53;;;8.91
71807;BMP280;59655;42.590;23.364;2024-02-04T08:19:28;91705.69;;;8.90
71807;BMP280;59655;42.590;23.364;2024-02-04T08:21:53;91708.00;;;8.94
71807;BMP280;59655;42.590;23.364;2024-02-04T08:24:18;91725.34;;;9.02
71807;BMP280;59655;42.590;23.364;2024-02-04T08:26:44;91714.00;;;9.15
71807;BMP280;59655;42.590;23.364;2024-02-04T08:29:10;91718.81;;;9.17
71807;BMP280;59655;42.590;23.364;2024-02-04T08:31:36;91718.53;;;9.07
71807;BMP280;59655;42.590;23.364;2024-02-04T08:34:02;91728.22;;;9.05
71807;BMP280;59655;42.590;23.364;2024-02-04T08:36:29;91708.91;;;8.96
71807;BMP280;59655;42.590;23.364;2024-02-04T08:38:55;91723.31;;;8.88
71807;BMP280;59655;42.590;23.364;2024-02-04T08:41:21;91710.78;;;8.88
71807;BMP280;59655;42.590;23.364;2024-02-04T08:43:46;91721.38;;;8.88
71807;BMP280;59655;42.590;23.364;2024-02-04T08:46:11;91726.03;;;8.95
71807;BMP280;59655;42.590;23.364;2024-02-04T08:48:37;91726.44;;;8.99
71807;BMP280;59655;42.590;23.364;2024-02-04T08:51:02;91718.28;;;8.97
71807;BMP280;59655;42.590;23.364;2024-02-04T08:53:27;91725.34;;;9.02
71807;BMP280;59655;42.590;23.364;2024-02-04T08:55:53;91749.00;;;9.00
71807;BMP280;59655;42.590;23.364;2024-02-04T08:58:18;91734.16;;;8.97
71807;BMP280;59655;42.590;23.364;2024-02-04T09:00:43;91705.56;;;8.96
71807;BMP280;59655;42.590;23.364;2024-02-04T09:03:09;91733.75;;;8.93
71807;BMP280;59655;42.590;23.364;2024-02-04T09:05:34;91742.41;;;8.94
71807;BMP280;59655;42.590;23.364;2024-02-04T09:07:59;91731.97;;;8.88
71807;BMP280;59655;42.590;23.364;2024-02-04T09:10:26;91739.00;;;8.86
71807;BMP280;59655;42.590;23.364;2024-02-04T09:12:52;91732.41;;;8.79
71807;BMP280;59655;42.590;23.364;2024-02-04T09:15:17;91734.72;;;8.82
71807;BMP280;59655;42.590;23.364;2024-02-04T09:17:42;91754.44;;;8.81
71807;BMP280;59655;42.590;23.364;2024-02-04T09:20:08;91754.81;;;8.78
71807;BMP280;59655;42.590;23.364;2024-02-04T09:22:34;91772.47;;;8.83
71807;BMP280;59655;42.590;23.364;2024-02-04T09:24:59;91730.63;;;8.81
71807;BMP280;59655;42.590;23.364;2024-02-04T09:27:26;91742.47;;;8.80
71807;BMP280;59655;42.590;23.364;2024-02-04T09:29:51;91786.31;;;8.76
71807;BMP280;59655;42.590;23.364;2024-02-04T09:32:17;91738.13;;;8.70
71807;BMP280;59655;42.590;23.364;2024-02-04T09:34:42;91744.84;;;8.71
71807;BMP280;59655;42.590;23.364;2024-02-04T09:37:08;91794.81;;;8.61
71807;BMP280;59655;42.590;23.364;2024-02-04T09:39:33;91764.31;;;8.47
71807;BMP280;59655;42.590;23.364;2024-02-04T09:41:58;91746.19;;;8.51
71807;BMP280;59655;42.590;23.364;2024-02-04T09:44:24;91725.03;;;8.51
71807;BMP280;59655;42.590;23.364;2024-02-04T09:46:50;91749.97;;;8.55
71807;BMP280;59655;42.590;23.364;2024-02-04T09:49:17;91727.09;;;8.79
71807;BMP280;59655;42.590;23.364;2024-02-04T09:51:43;91734.28;;;8.92
71807;BMP280;59655;42.590;23.364;2024-02-04T09:54:10;91721.38;;;8.88
71807;BMP280;59655;42.590;23.364;2024-02-04T09:56:38;91724.94;;;8.91
71807;BMP280;59655;42.590;23.364;2024-02-04T09:59:04;91746.78;;;8.91
71807;BMP280;59655;42.590;23.364;2024-02-04T10:01:31;91745.56;;;8.92
71807;BMP280;59655;42.590;23.364;2024-02-04T10:03:57;91755.53;;;8.99
71807;BMP280;59655;42.590;23.364;2024-02-04T10:06:22;91778.69;;;9.07
71807;BMP280;59655;42.590;23.364;2024-02-04T10:08:47;91728.75;;;9.03
71807;BMP280;59655;42.590;23.364;2024-02-04T10:11:13;91739.09;;;9.01
71807;BMP280;59655;42.590;23.364;2024-02-04T10:13:46;91745.97;;;8.96
71807;BMP280;59655;42.590;23.364;2024-02-04T10:16:12;91751.19;;;8.89
71807;BMP280;59655;42.590;23.364;2024-02-04T10:18:41;91745.66;;;9.00
71807;BMP280;59655;42.590;23.364;2024-02-04T10:21:23;91742.69;;;9.03
71807;BMP280;59655;42.590;23.364;2024-02-04T10:23:50;91790.66;;;9.00
71807;BMP280;59655;42.590;23.364;2024-02-04T10:26:17;91770.56;;;9.05
71807;BMP280;59655;42.590;23.364;2024-02-04T10:28:44;91819.56;;;8.98
71807;BMP280;59655;42.590;23.364;2024-02-04T10:31:10;91751.00;;;9.08
71807;BMP280;59655;42.590;23.364;2024-02-04T10:33:36;91747.19;;;9.16
71807;BMP280;59655;42.590;23.364;2024-02-04T10:36:03;91743.69;;;9.21
71807;BMP280;59655;42.590;23.364;2024-02-04T10:38:29;91736.91;;;9.34
71807;BMP280;59655;42.590;23.364;2024-02-04T10:40:54;91726.66;;;9.30
71807;BMP280;59655;42.590;23.364;2024-02-04T10:43:21;91718.22;;;9.39
71807;BMP280;59655;42.590;23.364;2024-02-04T10:45:47;91742.22;;;9.34
71807;BMP280;59655;42.590;23.364;2024-02-04T10:48:15;91731.94;;;9.30
71807;BMP280;59655;42.590;23.364;2024-02-04T10:50:46;91717.56;;;9.39
71807;BMP280;59655;42.590;23.364;2024-02-04T10:53:14;91742.22;;;9.34
71807;BMP280;59655;42.590;23.364;2024-02-04T10:55:41;91730.34;;;9.27
71807;BMP280;59655;42.590;23.364;2024-02-04T10:58:08;91749.91;;;9.24
71807;BMP280;59655;42.590;23.364;2024-02-04T11:00:34;91736.16;;;9.26
71807;BMP280;59655;42.590;23.364;2024-02-04T11:03:00;91746.44;;;9.29
71807;BMP280;59655;42.590;23.364;2024-02-04T11:05:27;91735.25;;;9.23
71807;BMP280;59655;42.590;23.364;2024-02-04T11:07:54;91732.09;;;9.24
71807;BMP280;59655;42.590;23.364;2024-02-04T11:10:20;91713.56;;;9.24
71807;BMP280;59655;42.590;23.364;2024-02-04T11:12:45;91728.53;;;9.22
71807;BMP280;59655;42.590;23.364;2024-02-04T11:15:14;91737.69;;;9.21
71807;BMP280;59655;42.590;23.364;2024-02-04T11:25:58;91682.31;;;9.52
71807;BMP280;59655;42.590;23.364;2024-02-04T11:28:25;91692.59;;;9.55
71807;BMP280;59655;42.590;23.364;2024-02-04T11:30:51;91684.59;;;9.48
71807;BMP280;59655;42.590;23.364;2024-02-04T11:33:21;91676.78;;;9.42
71807;BMP280;59655;42.590;23.364;2024-02-04T11:35:47;91718.72;;;9.59
71807;BMP280;59655;42.590;23.364;2024-02-04T11:38:17;91686.94;;;9.59
71807;BMP280;59655;42.590;23.364;2024-02-04T11:40:42;91693.66;;;9.60
71807;BMP280;59655;42.590;23.364;2024-02-04T11:43:11;91713.06;;;9.55
71807;BMP280;59655;42.590;23.364;2024-02-04T11:45:40;91718.78;;;9.66
71807;BMP280;59655;42.590;23.364;2024-02-04T11:48:10;91698.13;;;9.65
71807;BMP280;59655;42.590;23.364;2024-02-04T11:50:36;91701.66;;;9.67
71807;BMP280;59655;42.590;23.364;2024-02-04T11:53:13;91724.94;;;9.61
71807;BMP280;59655;42.590;23.364;2024-02-04T11:55:40;91691.53;;;9.58
71807;BMP280;59655;42.590;23.364;2024-02-04T11:58:06;91693.66;;;9.60
71807;BMP280;59655;42.590;23.364;2024-02-04T12:00:33;91670.75;;;9.70
71807;BMP280;59655;42.590;23.364;2024-02-04T12:03:03;91664.94;;;9.72
71807;BMP280;59655;42.590;23.364;2024-02-04T12:05:34;91654.16;;;9.70
71807;BMP280;59655;42.590;23.364;2024-02-04T12:08:04;91683.50;;;9.72
71807;BMP280;59655;42.590;23.364;2024-02-04T12:10:31;91667.81;;;9.81
71807;BMP280;59655;42.590;23.364;2024-02-04T12:13:02;91689.97;;;9.99
71807;BMP280;59655;42.590;23.364;2024-02-04T12:15:28;91717.25;;;10.07
71807;BMP280;59655;42.590;23.364;2024-02-04T12:17:53;91747.31;;;10.18
71807;BMP280;59655;42.590;23.364;2024-02-04T12:20:19;91698.19;;;10.17
71807;BMP280;59655;42.590;23.364;2024-02-04T12:22:44;91693.41;;;10.15
71807;BMP280;59655;42.590;23.364;2024-02-04T12:25:22;91681.19;;;10.12
71807;BMP280;59655;42.590;23.364;2024-02-04T12:27:51;91674.94;;;9.94
71807;BMP280;59655;42.590;23.364;2024-02-04T12:30:16;91735.88;;;9.94
71807;BMP280;59655;42.590;23.364;2024-02-04T12:32:41;91674.44;;;10.03
71807;BMP280;59655;42.590;23.364;2024-02-04T12:35:07;91675.16;;;10.04
71807;BMP280;59655;42.590;23.364;2024-02-04T12:37:34;91667.91;;;10.04
71807;BMP280;59655;42.590;23.364;2024-02-04T12:39:59;91677.25;;;9.98
71807;BMP280;59655;42.590;23.364;2024-02-04T12:42:27;91679.03;;;10.03
71807;BMP280;59655;42.590;23.364;2024-02-04T12:44:56;91781.34;;;9.98
71807;BMP280;59655;42.590;23.364;2024-02-04T12:47:22;91668.78;;;9.99
71807;BMP280;59655;42.590;23.364;2024-02-04T12:49:47;91683.25;;;9.98
71807;BMP280;59655;42.590;23.364;2024-02-04T12:52:12;91685.22;;;9.98
71807;BMP280;59655;42.590;23.364;2024-02-04T12:54:42;91687.69;;;10.03
71807;BMP280;59655;42.590;23.364;2024-02-04T12:57:08;91669.31;;;9.98
71807;BMP280;59655;42.590;23.364;2024-02-04T12:59:36;91678.91;;;10.16
71807;BMP280;59655;42.590;23.364;2024-02-04T13:02:04;91662.28;;;10.16
71807;BMP280;59655;42.590;23.364;2024-02-04T13:04:40;91690.44;;;10.19
71807;BMP280;59655;42.590;23.364;2024-02-04T13:07:10;91673.22;;;10.12
71807;BMP280;59655;42.590;23.364;2024-02-04T13:09:38;91670.53;;;9.97
71807;BMP280;59655;42.590;23.364;2024-02-04T13:12:07;91669.19;;;10.11
71807;BMP280;59655;42.590;23.364;2024-02-04T13:14:34;91737.19;;;10.01
71807;BMP280;59655;42.590;23.364;2024-02-04T13:17:00;91709.97;;;10.00
71807;BMP280;59655;42.590;23.364;2024-02-04T13:19:32;91715.66;;;10.12
71807;BMP280;59655;42.590;23.364;2024-02-04T13:21:58;91677.66;;;10.09
71807;BMP280;59655;42.590;23.364;2024-02-04T13:24:23;91686.47;;;10.12
71807;BMP280;59655;42.590;23.364;2024-02-04T13:26:49;91697.09;;;10.12
71807;BMP280;59655;42.590;23.364;2024-02-04T13:29:14;91697.09;;;10.12
71807;BMP280;59655;42.590;23.364;2024-02-04T13:31:39;91704.19;;;10.17
71807;BMP280;59655;42.590;23.364;2024-02-04T13:34:05;91687.06;;;10.18
71807;BMP280;59655;42.590;23.364;2024-02-04T13:36:30;91734.19;;;10.04
71807;BMP280;59655;42.590;23.364;2024-02-04T13:38:56;91687.28;;;9.92
71807;BMP280;59655;42.590;23.364;2024-02-04T13:41:21;91679.56;;;9.94
71807;BMP280;59655;42.590;23.364;2024-02-04T13:43:46;91702.78;;;9.80
71807;BMP280;59655;42.590;23.364;2024-02-04T13:46:12;91682.84;;;9.86
71807;BMP280;59655;42.590;23.364;2024-02-04T13:48:37;91689.19;;;9.83
71807;BMP280;59655;42.590;23.364;2024-02-04T13:51:02;91704.97;;;9.97
71807;BMP280;59655;42.590;23.364;2024-02-04T13:53:28;91703.97;;;10.00
71807;BMP280;59655;42.590;23.364;2024-02-04T13:55:53;91685.91;;;9.98
71807;BMP280;59655;42.590;23.364;2024-02-04T13:58:19;91693.13;;;9.90
71807;BMP280;59655;42.590;23.364;2024-02-04T14:00:45;91702.69;;;9.93
71807;BMP280;59655;42.590;23.364;2024-02-04T14:03:10;91691.00;;;9.88
71807;BMP280;59655;42.590;23.364;2024-02-04T14:05:38;91682.81;;;9.79
71807;BMP280;59655;42.590;23.364;2024-02-04T14:08:05;91697.38;;;9.93
71807;BMP280;59655;42.590;23.364;2024-02-04T14:10:30;91698.09;;;9.94
71807;BMP280;59655;42.590;23.364;2024-02-04T14:12:56;91686.03;;;9.85